createdAt,value
2019-01-20T00:01:25.186Z,-8.55
2019-01-20T00:07:01.989Z,-8.47
2019-01-20T00:13:19.200Z,-8.61
2019-01-20T00:16:27.735Z,-8.57
2019-01-20T00:18:55.910Z,-8.45
2019-01-20T00:21:23.978Z,-8.44
2019-01-20T00:24:32.075Z,-8.46
2019-01-20T00:27:40.274Z,-8.45
2019-01-20T00:33:57.549Z,-8.32
2019-01-20T00:45:13.806Z,-8.32
2019-01-20T00:47:42.457Z,-8.31
2019-01-20T00:50:50.986Z,-8.23
2019-01-20T00:53:19.226Z,-8.13
2019-01-20T00:58:56.232Z,-8.12
2019-01-20T01:01:24.050Z,-8.13
2019-01-20T01:03:52.483Z,-8.16
2019-01-20T01:07:00.955Z,-8.14
2019-01-20T01:09:29.487Z,-8.15
2019-01-20T01:12:37.655Z,-8.21
2019-01-20T01:15:46.162Z,-8.24
2019-01-20T01:18:14.352Z,-8.32
2019-01-20T01:20:42.802Z,-8.19
2019-01-20T01:23:10.806Z,-8.22
2019-01-20T01:29:14.365Z,-8.35
2019-01-20T01:31:42.180Z,-8.29
2019-01-20T01:34:09.647Z,-8.26
2019-01-20T01:37:18.141Z,-8.36
2019-01-20T01:42:41.572Z,-8.31
2019-01-20T01:45:50.697Z,-8.33
2019-01-20T01:51:27.807Z,-8.28
2019-01-20T01:53:56.186Z,-8.30
2019-01-20T01:56:24.346Z,-8.31
2019-01-20T01:58:52.772Z,-8.41
2019-01-20T02:01:21.048Z,-8.46
2019-01-20T02:03:49.211Z,-8.43
2019-01-20T02:06:16.603Z,-8.45
2019-01-20T02:09:25.058Z,-8.52
2019-01-20T02:11:53.219Z,-8.66
2019-01-20T02:14:21.338Z,-8.76
2019-01-20T02:17:29.828Z,-8.82
2019-01-20T02:19:58.322Z,-8.86
2019-01-20T02:22:26.023Z,-8.84
2019-01-20T02:28:08.462Z,-8.86
2019-01-20T02:30:36.529Z,-8.83
2019-01-20T02:33:04.767Z,-8.85
2019-01-20T02:35:32.823Z,-8.89
2019-01-20T02:38:40.957Z,-8.93
2019-01-20T02:41:54.997Z,-8.92
2019-01-20T02:44:19.129Z,-8.90
2019-01-20T02:49:54.417Z,-8.92
2019-01-20T02:52:22.186Z,-8.95
2019-01-20T02:54:50.386Z,-8.96
2019-01-20T02:57:18.510Z,-8.99
2019-01-20T03:02:55.598Z,-9.05
2019-01-20T03:06:03.946Z,-9.04
2019-01-20T03:09:12.392Z,-9.01
2019-01-20T03:11:40.532Z,-8.98
2019-01-20T03:14:08.622Z,-8.91
2019-01-20T03:16:36.022Z,-8.95
2019-01-20T03:22:23.511Z,-8.86
2019-01-20T03:24:51.606Z,-8.91
2019-01-20T03:27:20.207Z,-9.02
2019-01-20T03:29:48.610Z,-9.03
2019-01-20T03:32:16.691Z,-8.86
2019-01-20T03:35:03.975Z,-8.65
2019-01-20T03:37:32.117Z,-8.63
2019-01-20T03:39:59.982Z,-8.61
2019-01-20T03:45:42.721Z,-8.66
2019-01-20T03:48:10.833Z,-8.74
2019-01-20T03:53:47.724Z,-8.75
2019-01-20T03:56:16.099Z,-8.79
2019-01-20T03:59:24.593Z,-8.80
2019-01-20T04:01:53.202Z,-8.81
2019-01-20T04:13:26.307Z,-8.72
2019-01-20T04:16:34.780Z,-8.75
2019-01-20T04:19:02.915Z,-8.58
2019-01-20T04:21:31.287Z,-8.45
2019-01-20T04:23:59.756Z,-8.34
2019-01-20T04:26:27.923Z,-8.41
2019-01-20T04:28:56.002Z,-8.16
2019-01-20T04:31:24.496Z,-8.04
2019-01-20T04:33:52.559Z,-8.01
2019-01-20T04:36:20.640Z,-7.76
2019-01-20T04:38:48.461Z,-7.75
2019-01-20T04:41:17.005Z,-7.80
2019-01-20T04:47:34.217Z,-7.79
2019-01-20T04:50:02.410Z,-7.82
2019-01-20T04:55:39.569Z,-7.69
2019-01-20T05:04:32.621Z,-7.65
2019-01-20T05:10:36.144Z,-7.55
2019-01-20T05:13:04.829Z,-7.62
2019-01-20T05:15:33.007Z,-7.60
2019-01-20T05:18:01.427Z,-7.61
2019-01-20T05:20:30.067Z,-7.57
2019-01-20T05:22:58.470Z,-7.47
2019-01-20T05:25:26.693Z,-7.40
2019-01-20T05:27:54.727Z,-7.40
2019-01-20T05:31:03.924Z,-7.37
2019-01-20T05:33:32.405Z,-7.18
2019-01-20T05:36:00.593Z,-7.11
2019-01-20T05:42:04.814Z,-7.12
2019-01-20T05:47:41.487Z,-7.24
2019-01-20T05:53:19.083Z,-7.11
2019-01-20T05:56:27.161Z,-7.09
2019-01-20T05:58:55.550Z,-7.04
2019-01-20T06:02:04.045Z,-7.04
2019-01-20T06:05:12.119Z,-7.01
2019-01-20T06:10:36.248Z,-7.08
2019-01-20T06:13:04.422Z,-7.17
2019-01-20T06:16:12.228Z,-7.20
2019-01-20T06:19:20.412Z,-7.14
2019-01-20T06:21:48.984Z,-7.20
2019-01-20T06:24:16.714Z,-7.16
2019-01-20T06:26:45.238Z,-7.13
2019-01-20T06:29:13.718Z,-7.08
2019-01-20T06:31:41.458Z,-7.04
2019-01-20T06:34:09.552Z,-7.03
2019-01-20T06:36:37.526Z,-6.97
2019-01-20T06:39:47.939Z,-7.02
2019-01-20T06:43:01.774Z,-6.99
2019-01-20T06:45:26.826Z,-6.93
2019-01-20T06:47:54.996Z,-6.93
2019-01-20T06:50:23.464Z,-6.93
2019-01-20T06:53:31.555Z,-7.01
2019-01-20T06:55:59.756Z,-6.98
2019-01-20T06:59:08.230Z,-6.96
2019-01-20T07:02:16.713Z,-7.03
2019-01-20T07:05:24.976Z,-7.05
2019-01-20T07:07:53.575Z,-7.02
2019-01-20T07:10:21.822Z,-7.01
2019-01-20T07:16:39.021Z,-6.85
2019-01-20T07:19:26.606Z,-6.59
2019-01-20T07:21:54.914Z,-6.37
2019-01-20T07:24:23.109Z,-6.35
2019-01-20T07:30:26.707Z,-6.42
2019-01-20T07:33:34.927Z,-6.49
2019-01-20T07:38:57.849Z,-6.49
2019-01-20T07:41:26.441Z,-6.43
2019-01-20T07:43:54.607Z,-6.45
2019-01-20T07:49:17.282Z,-6.47
2019-01-20T07:52:25.383Z,-6.44
2019-01-20T07:54:53.543Z,-6.28
2019-01-20T08:03:14.187Z,-6.18
2019-01-20T08:09:17.270Z,-6.06
2019-01-20T08:14:53.823Z,-5.96
2019-01-20T08:17:21.585Z,-6.03
2019-01-20T08:20:29.843Z,-5.91
2019-01-20T08:23:37.970Z,-5.84
2019-01-20T08:26:06.377Z,-5.75
2019-01-20T08:28:34.867Z,-5.55
2019-01-20T08:34:51.947Z,-5.12
2019-01-20T08:41:10.048Z,-4.75
2019-01-20T08:43:38.873Z,-4.69
2019-01-20T08:46:59.092Z,-4.66
2019-01-20T08:49:26.904Z,-4.65
2019-01-20T08:52:35.393Z,-4.55
2019-01-20T08:55:43.933Z,-4.62
2019-01-20T08:58:12.183Z,-4.66
2019-01-20T09:00:40.672Z,-4.78
2019-01-20T09:03:09.789Z,-4.74
2019-01-20T09:05:37.164Z,-4.76
2019-01-20T09:08:45.683Z,-4.68
2019-01-20T09:11:14.186Z,-4.58
2019-01-20T09:13:42.480Z,-4.40
2019-01-20T09:16:11.047Z,-4.39
2019-01-20T09:19:19.344Z,-4.34
2019-01-20T09:22:27.852Z,-4.36
2019-01-20T09:24:56.435Z,-4.07
2019-01-20T09:28:04.984Z,-3.96
2019-01-20T09:30:33.568Z,-3.91
2019-01-20T09:33:42.096Z,-3.78
2019-01-20T09:36:10.332Z,-3.61
2019-01-20T09:41:47.189Z,-3.38
2019-01-20T09:44:15.718Z,-3.24
2019-01-20T09:46:44.209Z,-3.25
2019-01-20T09:49:11.618Z,-3.13
2019-01-20T09:52:19.806Z,-2.95
2019-01-20T09:55:28.376Z,-2.80
2019-01-20T09:57:56.650Z,-2.54
2019-01-20T10:01:05.474Z,-2.50
2019-01-20T10:06:28.628Z,-2.38
2019-01-20T10:12:45.366Z,-2.07
2019-01-20T10:15:53.787Z,-1.80
2019-01-20T10:18:21.822Z,-1.67
2019-01-20T10:20:50.021Z,-1.40
2019-01-20T10:23:17.925Z,-1.29
2019-01-20T10:25:46.414Z,-1.23
2019-01-20T10:28:17.043Z,-1.10
2019-01-20T10:30:44.881Z,-0.84
2019-01-20T10:33:12.771Z,-0.67
2019-01-20T10:35:42.859Z,-0.43
2019-01-20T10:43:24.489Z,0.42
2019-01-20T10:45:53.173Z,0.52
2019-01-20T10:48:21.493Z,0.77
2019-01-20T10:50:49.658Z,0.91
2019-01-20T10:53:18.199Z,0.98
2019-01-20T10:55:46.737Z,1.02
2019-01-20T10:58:14.969Z,1.13
2019-01-20T11:00:43.268Z,1.20
2019-01-20T11:03:11.329Z,1.22
2019-01-20T11:05:39.856Z,1.27
2019-01-20T11:08:07.313Z,1.28
2019-01-20T11:10:35.961Z,1.14
2019-01-20T11:13:04.158Z,1.20
2019-01-20T11:15:32.635Z,1.34
2019-01-20T11:18:00.809Z,1.33
2019-01-20T11:20:29.357Z,1.44
2019-01-20T11:22:57.198Z,1.69
2019-01-20T11:25:44.360Z,1.98
2019-01-20T11:28:12.504Z,2.08
2019-01-20T11:30:40.239Z,2.14
2019-01-20T11:33:08.619Z,2.28
2019-01-20T11:35:36.929Z,2.34
2019-01-20T11:38:05.275Z,2.51
2019-01-20T11:41:13.829Z,2.53
2019-01-20T11:43:41.958Z,2.73
2019-01-20T11:46:10.050Z,2.88
2019-01-20T11:48:38.515Z,2.94
2019-01-20T11:51:06.964Z,3.04
2019-01-20T11:53:34.670Z,3.12
2019-01-20T11:56:03.270Z,3.32
2019-01-20T11:58:31.387Z,3.47
2019-01-20T12:00:59.528Z,3.79
2019-01-20T12:03:27.311Z,3.91
2019-01-20T12:05:55.832Z,3.72
2019-01-20T12:08:30.406Z,3.36
2019-01-20T12:10:54.308Z,2.85
2019-01-20T12:13:31.269Z,2.79
2019-01-20T12:15:59.349Z,3.11
2019-01-20T12:18:27.134Z,3.18
2019-01-20T12:20:55.587Z,3.49
2019-01-20T12:23:23.773Z,3.67
2019-01-20T12:25:51.933Z,4.02
2019-01-20T12:28:20.138Z,4.13
2019-01-20T12:30:48.660Z,4.08
2019-01-20T12:33:17.227Z,3.93
2019-01-20T12:38:54.180Z,3.98
2019-01-20T12:41:22.455Z,3.60
2019-01-20T12:43:50.412Z,3.44
2019-01-20T12:46:58.853Z,3.31
2019-01-20T12:50:06.688Z,3.26
2019-01-20T12:52:35.098Z,3.21
2019-01-20T12:57:58.717Z,3.13
2019-01-20T13:00:27.520Z,2.92
2019-01-20T13:03:35.999Z,2.60
2019-01-20T13:06:04.411Z,2.50
2019-01-20T13:09:12.632Z,2.51
2019-01-20T13:14:48.770Z,2.66
2019-01-20T13:17:17.281Z,2.71
2019-01-20T13:20:25.179Z,2.85
2019-01-20T13:23:33.732Z,3.03
2019-01-20T13:26:01.973Z,3.09
2019-01-20T13:32:18.935Z,3.16
2019-01-20T13:34:46.740Z,3.44
2019-01-20T13:37:15.366Z,3.67
2019-01-20T13:42:38.638Z,3.61
2019-01-20T13:45:47.704Z,3.45
2019-01-20T13:48:56.259Z,2.86
2019-01-20T13:54:20.433Z,2.15
2019-01-20T13:56:48.498Z,1.82
2019-01-20T13:59:56.710Z,1.71
2019-01-20T14:03:04.904Z,1.70
2019-01-20T14:05:33.568Z,1.81
2019-01-20T14:08:01.787Z,2.06
2019-01-20T14:11:10.295Z,2.18
2019-01-20T14:14:18.757Z,2.36
2019-01-20T14:20:22.831Z,2.31
2019-01-20T14:23:31.396Z,2.04
2019-01-20T14:25:59.839Z,1.95
2019-01-20T14:28:27.639Z,1.80
2019-01-20T14:30:55.936Z,1.66
2019-01-20T14:33:24.394Z,1.52
2019-01-20T14:35:52.684Z,1.39
2019-01-20T14:38:20.968Z,1.31
2019-01-20T14:40:49.102Z,1.14
2019-01-20T14:43:17.713Z,1.04
2019-01-20T14:45:46.357Z,1.01
2019-01-20T14:48:14.990Z,0.99
2019-01-20T14:50:43.293Z,0.87
2019-01-20T14:53:11.438Z,0.80
2019-01-20T14:55:39.725Z,0.62
2019-01-20T14:58:07.948Z,0.43
2019-01-20T15:00:36.847Z,0.34
2019-01-20T15:03:05.716Z,0.32
2019-01-20T15:05:33.926Z,0.32
2019-01-20T15:08:42.075Z,0.17
2019-01-20T15:11:09.865Z,0.06
2019-01-20T15:16:33.379Z,-0.12
2019-01-20T15:19:41.952Z,-0.13
2019-01-20T15:22:10.443Z,-0.12
2019-01-20T15:24:38.859Z,-0.08
2019-01-20T15:27:07.344Z,-0.05
2019-01-20T15:29:35.574Z,-0.07
2019-01-20T15:32:03.268Z,-0.16
2019-01-20T15:34:31.146Z,-0.20
2019-01-20T15:36:59.216Z,-0.23
2019-01-20T15:39:27.410Z,-0.30
2019-01-20T15:41:55.558Z,-0.35
2019-01-20T15:44:23.775Z,-0.42
2019-01-20T15:46:51.700Z,-0.51
2019-01-20T15:49:19.631Z,-0.57
2019-01-20T15:51:47.901Z,-0.60
2019-01-20T15:54:16.048Z,-0.58
2019-01-20T15:56:44.671Z,-0.60
2019-01-20T15:59:12.895Z,-0.66
2019-01-20T16:01:41.486Z,-0.70
2019-01-20T16:04:09.616Z,-0.74
2019-01-20T16:06:37.884Z,-0.87
2019-01-20T16:09:47.969Z,-0.96
2019-01-20T16:12:16.004Z,-0.95
2019-01-20T16:14:44.605Z,-0.98
2019-01-20T16:17:52.827Z,-1.03
2019-01-20T16:20:21.525Z,-1.08
2019-01-20T16:25:58.777Z,-1.15
2019-01-20T16:28:26.894Z,-1.17
2019-01-20T16:33:28.732Z,-1.20
2019-01-20T16:36:37.236Z,-1.25
2019-01-20T16:39:47.611Z,-1.26
2019-01-20T16:42:15.871Z,-1.27
2019-01-20T16:44:44.336Z,-1.34
2019-01-20T16:47:12.911Z,-1.41
2019-01-20T16:49:40.369Z,-1.45
2019-01-20T16:52:08.235Z,-1.46
2019-01-20T16:55:16.769Z,-1.44
2019-01-20T16:57:44.515Z,-1.45
2019-01-20T17:02:52.958Z,-1.54
2019-01-20T17:05:26.492Z,-1.57
2019-01-20T17:07:51.721Z,-1.57
2019-01-20T17:10:21.704Z,-1.61
2019-01-20T17:12:49.984Z,-1.60
2019-01-20T17:15:20.170Z,-1.59
2019-01-20T17:17:48.531Z,-1.59
2019-01-20T17:20:57.590Z,-1.59
2019-01-20T17:23:26.332Z,-1.63
2019-01-20T17:25:54.574Z,-1.66
2019-01-20T17:28:22.441Z,-1.66
2019-01-20T17:30:50.920Z,-1.64
2019-01-20T17:33:19.100Z,-1.65
2019-01-20T17:35:47.303Z,-1.55
2019-01-20T17:38:15.449Z,-1.53
2019-01-20T17:40:44.154Z,-1.61
2019-01-20T17:43:12.786Z,-1.62
2019-01-20T17:45:47.557Z,-1.67
2019-01-20T17:48:12.845Z,-1.67
2019-01-20T17:51:22.009Z,-1.74
2019-01-20T17:53:52.109Z,-1.77
2019-01-20T17:56:20.826Z,-1.81
2019-01-20T17:58:49.033Z,-1.86
2019-01-20T18:01:17.436Z,-1.91
2019-01-20T18:03:45.836Z,-1.94
2019-01-20T18:09:49.078Z,-1.94
2019-01-20T18:12:17.436Z,-1.95
2019-01-20T18:14:45.711Z,-1.95
2019-01-20T18:17:13.650Z,-1.98
2019-01-20T18:19:41.410Z,-1.98
2019-01-20T18:22:09.637Z,-1.97
2019-01-20T18:24:37.666Z,-1.97
2019-01-20T18:27:06.350Z,-1.98
2019-01-20T18:29:34.177Z,-1.99
2019-01-20T18:32:02.492Z,-2.02
2019-01-20T18:34:30.972Z,-2.02
2019-01-20T18:36:59.200Z,-2.03
2019-01-20T18:39:27.320Z,-2.01
2019-01-20T18:41:55.875Z,-1.97
2019-01-20T18:44:24.341Z,-1.96
2019-01-20T18:46:52.363Z,-2.01
2019-01-20T18:49:20.430Z,-2.00
2019-01-20T18:51:49.220Z,-2.04
2019-01-20T18:54:17.815Z,-2.04
2019-01-20T18:56:46.069Z,-2.04
2019-01-20T18:59:14.235Z,-2.00
2019-01-20T19:01:55.526Z,-1.94
2019-01-20T19:04:23.945Z,-1.92
2019-01-20T19:06:52.533Z,-1.87
2019-01-20T19:09:21.045Z,-1.86
2019-01-20T19:14:24.142Z,-1.83
2019-01-20T19:17:32.731Z,-1.79
2019-01-20T19:19:59.786Z,-1.82
2019-01-20T19:25:13.273Z,-1.92
2019-01-20T19:27:31.921Z,-1.96
2019-01-20T19:30:00.509Z,-1.92
2019-01-20T19:32:29.084Z,-1.90
2019-01-20T19:35:16.314Z,-1.91
2019-01-20T19:40:19.263Z,-1.92
2019-01-20T19:42:48.004Z,-1.93
2019-01-20T19:45:56.714Z,-1.93
2019-01-20T19:49:06.039Z,-1.91
2019-01-20T19:51:33.862Z,-1.91
2019-01-20T19:54:42.484Z,-1.77
2019-01-20T19:57:09.864Z,-1.71
2019-01-20T20:02:32.689Z,-1.83
2019-01-20T20:05:00.992Z,-1.87
2019-01-20T20:10:38.484Z,-1.80
2019-01-20T20:13:06.698Z,-1.81
2019-01-20T20:15:35.274Z,-1.84
2019-01-20T20:18:03.102Z,-1.85
2019-01-20T20:20:31.606Z,-1.85
2019-01-20T20:23:00.197Z,-1.89
2019-01-20T20:28:23.378Z,-1.94
2019-01-20T20:30:51.882Z,-1.93
2019-01-20T20:33:20.322Z,-2.01
2019-01-20T20:35:48.708Z,-2.04
2019-01-20T20:38:17.009Z,-2.02
2019-01-20T20:40:46.228Z,-1.99
2019-01-20T20:43:14.492Z,-2.03
2019-01-20T20:45:43.058Z,-2.01
2019-01-20T20:48:11.095Z,-1.99
2019-01-20T20:50:39.880Z,-1.95
2019-01-20T20:53:49.658Z,-1.91
2019-01-20T20:56:18.096Z,-1.91
2019-01-20T20:58:46.784Z,-1.94
2019-01-20T21:01:15.164Z,-1.97
2019-01-20T21:03:43.102Z,-2.01
2019-01-20T21:06:10.696Z,-2.04
2019-01-20T21:08:39.431Z,-2.01
2019-01-20T21:11:07.605Z,-2.02
2019-01-20T21:13:35.690Z,-2.05
2019-01-20T21:16:04.241Z,-2.10
2019-01-20T21:18:32.518Z,-2.15
2019-01-20T21:21:00.807Z,-2.21
2019-01-20T21:23:29.682Z,-2.18
2019-01-20T21:29:07.571Z,-2.10
2019-01-20T21:34:30.568Z,-2.23
2019-01-20T21:36:58.945Z,-2.27
2019-01-20T21:39:27.214Z,-2.29
2019-01-20T21:44:35.556Z,-2.25
2019-01-20T21:47:04.173Z,-2.36
2019-01-20T21:49:32.642Z,-2.39
2019-01-20T21:52:01.126Z,-2.37
2019-01-20T21:54:29.782Z,-2.43
2019-01-20T21:56:58.203Z,-2.44
2019-01-20T21:59:27.040Z,-2.50
2019-01-20T22:02:14.663Z,-2.55
2019-01-20T22:04:42.752Z,-2.55
2019-01-20T22:07:10.982Z,-2.50
2019-01-20T22:09:40.138Z,-2.48
2019-01-20T22:12:08.675Z,-2.43
2019-01-20T22:14:37.369Z,-2.39
2019-01-20T22:17:45.590Z,-2.39
2019-01-20T22:20:33.995Z,-2.43
2019-01-20T22:23:21.490Z,-2.44
2019-01-20T22:25:49.857Z,-2.50
2019-01-20T22:28:18.091Z,-2.52
2019-01-20T22:31:06.049Z,-2.51
2019-01-20T22:34:14.516Z,-2.52
2019-01-20T22:36:43.091Z,-2.61
2019-01-20T22:39:30.081Z,-2.69
2019-01-20T22:41:59.288Z,-2.76
2019-01-20T22:47:24.733Z,-2.72
2019-01-20T22:50:33.201Z,-2.69
2019-01-20T22:53:02.005Z,-2.71
2019-01-20T22:56:10.445Z,-2.68
2019-01-20T22:59:18.912Z,-2.64
2019-01-20T23:01:46.867Z,-2.60
2019-01-20T23:04:14.242Z,-2.67
2019-01-20T23:06:42.165Z,-2.68
2019-01-20T23:09:10.151Z,-2.69
2019-01-20T23:11:38.739Z,-2.73
2019-01-20T23:14:06.971Z,-2.78
2019-01-20T23:16:35.411Z,-2.84
2019-01-20T23:19:03.955Z,-2.89
2019-01-20T23:21:32.149Z,-2.89
2019-01-20T23:24:00.202Z,-2.84
2019-01-20T23:26:28.722Z,-2.78
2019-01-20T23:28:56.836Z,-2.83
2019-01-20T23:31:24.963Z,-2.79
2019-01-20T23:37:01.350Z,-2.79
2019-01-20T23:39:29.547Z,-2.90
2019-01-20T23:42:37.647Z,-2.86
2019-01-20T23:45:46.082Z,-2.90
2019-01-20T23:51:08.640Z,-3.02
2019-01-20T23:53:36.850Z,-3.09
2019-01-20T23:56:05.220Z,-3.06
2019-01-20T23:58:33.645Z,-3.01
